sensor_id;sensor_type;location;lat;lon;timestamp;P1;durP1;ratioP1;P2;durP2;ratioP2
66163;SDS011;52962;51.088;3.096;2023-04-24T00:00:34;3.17;;;1.73;;
66163;SDS011;52962;51.088;3.096;2023-04-24T00:03:02;2.35;;;1.98;;
66163;SDS011;52962;51.088;3.096;2023-04-24T00:08:00;3.42;;;1.52;;
66163;SDS011;52962;51.088;3.096;2023-04-24T00:10:28;3.90;;;1.05;;
66163;SDS011;52962;51.088;3.096;2023-04-24T00:12:57;2.90;;;1.42;;
66163;SDS011;52962;51.088;3.096;2023-04-24T00:15:25;3.10;;;1.63;;
66163;SDS011;52962;51.088;3.096;2023-04-24T00:17:53;1.25;;;1.15;;
66163;SDS011;52962;51.088;3.096;2023-04-24T00:20:22;1.88;;;1.77;;
66163;SDS011;52962;51.088;3.096;2023-04-24T00:25:19;0.77;;;0.77;;
66163;SDS011;52962;51.088;3.096;2023-04-24T00:27:47;0.90;;;0.90;;
66163;SDS011;52962;51.088;3.096;2023-04-24T00:30:15;3.28;;;2.42;;
66163;SDS011;52962;51.088;3.096;2023-04-24T00:32:43;3.17;;;1.63;;
66163;SDS011;52962;51.088;3.096;2023-04-24T00:35:11;1.90;;;1.65;;
66163;SDS011;52962;51.088;3.096;2023-04-24T00:37:41;2.03;;;1.90;;
66163;SDS011;52962;51.088;3.096;2023-04-24T00:40:11;3.60;;;2.45;;
66163;SDS011;52962;51.088;3.096;2023-04-24T00:42:41;3.33;;;3.03;;
66163;SDS011;52962;51.088;3.096;2023-04-24T00:45:11;3.47;;;3.10;;
66163;SDS011;52962;51.088;3.096;2023-04-24T00:47:40;4.43;;;3.63;;
66163;SDS011;52962;51.088;3.096;2023-04-24T00:50:09;2.78;;;1.42;;
66163;SDS011;52962;51.088;3.096;2023-04-24T00:52:39;2.58;;;2.17;;
66163;SDS011;52962;51.088;3.096;2023-04-24T00:55:08;6.50;;;3.13;;
66163;SDS011;52962;51.088;3.096;2023-04-24T00:57:38;3.53;;;2.92;;
66163;SDS011;52962;51.088;3.096;2023-04-24T01:00:07;3.35;;;3.08;;
66163;SDS011;52962;51.088;3.096;2023-04-24T01:02:38;3.28;;;2.97;;
66163;SDS011;52962;51.088;3.096;2023-04-24T01:05:10;2.05;;;1.85;;
66163;SDS011;52962;51.088;3.096;2023-04-24T01:07:39;2.25;;;2.05;;
66163;SDS011;52962;51.088;3.096;2023-04-24T01:10:10;7.07;;;4.80;;
66163;SDS011;52962;51.088;3.096;2023-04-24T01:12:40;5.60;;;2.67;;
66163;SDS011;52962;51.088;3.096;2023-04-24T01:15:11;3.10;;;2.80;;
66163;SDS011;52962;51.088;3.096;2023-04-24T01:17:41;4.60;;;4.05;;
66163;SDS011;52962;51.088;3.096;2023-04-24T01:20:09;4.78;;;4.20;;
66163;SDS011;52962;51.088;3.096;2023-04-24T01:22:41;4.22;;;3.28;;
66163;SDS011;52962;51.088;3.096;2023-04-24T01:25:09;4.80;;;4.30;;
66163;SDS011;52962;51.088;3.096;2023-04-24T01:27:37;4.97;;;4.07;;
66163;SDS011;52962;51.088;3.096;2023-04-24T01:30:06;6.63;;;3.78;;
66163;SDS011;52962;51.088;3.096;2023-04-24T01:32:35;6.35;;;3.72;;
66163;SDS011;52962;51.088;3.096;2023-04-24T01:35:05;7.43;;;3.85;;
66163;SDS011;52962;51.088;3.096;2023-04-24T01:37:34;3.20;;;2.90;;
66163;SDS011;52962;51.088;3.096;2023-04-24T01:40:06;2.95;;;2.75;;
66163;SDS011;52962;51.088;3.096;2023-04-24T01:42:34;2.50;;;2.30;;
66163;SDS011;52962;51.088;3.096;2023-04-24T01:45:04;3.88;;;2.20;;
66163;SDS011;52962;51.088;3.096;2023-04-24T01:47:33;3.10;;;1.20;;
66163;SDS011;52962;51.088;3.096;2023-04-24T01:50:01;1.98;;;1.55;;
66163;SDS011;52962;51.088;3.096;2023-04-24T01:52:30;8.55;;;2.97;;
66163;SDS011;52962;51.088;3.096;2023-04-24T01:54:59;1.95;;;0.98;;
66163;SDS011;52962;51.088;3.096;2023-04-24T01:57:29;2.25;;;1.02;;
66163;SDS011;52962;51.088;3.096;2023-04-24T01:59:58;1.65;;;1.13;;
66163;SDS011;52962;51.088;3.096;2023-04-24T02:02:28;1.10;;;1.00;;
66163;SDS011;52962;51.088;3.096;2023-04-24T02:04:56;1.08;;;0.50;;
66163;SDS011;52962;51.088;3.096;2023-04-24T02:07:25;2.10;;;1.40;;
66163;SDS011;52962;51.088;3.096;2023-04-24T02:09:53;2.42;;;0.93;;
66163;SDS011;52962;51.088;3.096;2023-04-24T02:12:22;3.05;;;1.10;;
66163;SDS011;52962;51.088;3.096;2023-04-24T02:14:52;3.35;;;1.27;;
66163;SDS011;52962;51.088;3.096;2023-04-24T02:17:20;2.67;;;1.67;;
66163;SDS011;52962;51.088;3.096;2023-04-24T02:19:48;1.55;;;0.93;;
66163;SDS011;52962;51.088;3.096;2023-04-24T02:22:17;2.22;;;1.08;;
66163;SDS011;52962;51.088;3.096;2023-04-24T02:24:45;1.30;;;0.98;;
66163;SDS011;52962;51.088;3.096;2023-04-24T02:27:14;1.80;;;1.02;;
66163;SDS011;52962;51.088;3.096;2023-04-24T02:29:42;1.05;;;0.88;;
66163;SDS011;52962;51.088;3.096;2023-04-24T02:32:13;2.25;;;1.75;;
66163;SDS011;52962;51.088;3.096;2023-04-24T02:34:42;1.27;;;1.17;;
66163;SDS011;52962;51.088;3.096;2023-04-24T02:37:11;2.15;;;1.75;;
66163;SDS011;52962;51.088;3.096;2023-04-24T02:39:39;1.98;;;1.88;;
66163;SDS011;52962;51.088;3.096;2023-04-24T02:42:08;7.88;;;2.17;;
66163;SDS011;52962;51.088;3.096;2023-04-24T02:44:36;5.47;;;2.40;;
66163;SDS011;52962;51.088;3.096;2023-04-24T02:47:04;2.15;;;1.20;;
66163;SDS011;52962;51.088;3.096;2023-04-24T02:49:33;5.97;;;2.60;;
66163;SDS011;52962;51.088;3.096;2023-04-24T02:52:01;1.13;;;0.90;;
66163;SDS011;52962;51.088;3.096;2023-04-24T02:54:29;4.30;;;3.33;;
66163;SDS011;52962;51.088;3.096;2023-04-24T02:56:57;3.05;;;2.00;;
66163;SDS011;52962;51.088;3.096;2023-04-24T02:59:28;3.03;;;2.40;;
66163;SDS011;52962;51.088;3.096;2023-04-24T03:01:56;3.20;;;2.50;;
66163;SDS011;52962;51.088;3.096;2023-04-24T03:04:24;8.63;;;3.50;;
66163;SDS011;52962;51.088;3.096;2023-04-24T03:06:54;6.38;;;2.85;;
66163;SDS011;52962;51.088;3.096;2023-04-24T03:09:22;2.75;;;2.55;;
66163;SDS011;52962;51.088;3.096;2023-04-24T03:11:50;3.67;;;3.15;;
66163;SDS011;52962;51.088;3.096;2023-04-24T03:14:19;2.72;;;2.13;;
66163;SDS011;52962;51.088;3.096;2023-04-24T03:21:55;2.05;;;1.63;;
66163;SDS011;52962;51.088;3.096;2023-04-24T03:24:24;1.23;;;1.13;;
66163;SDS011;52962;51.088;3.096;2023-04-24T03:26:55;4.80;;;2.75;;
66163;SDS011;52962;51.088;3.096;2023-04-24T03:29:46;2.42;;;2.22;;
66163;SDS011;52962;51.088;3.096;2023-04-24T03:32:16;2.38;;;2.17;;
66163;SDS011;52962;51.088;3.096;2023-04-24T03:34:46;2.33;;;1.45;;
66163;SDS011;52962;51.088;3.096;2023-04-24T03:37:15;1.77;;;1.67;;
66163;SDS011;52962;51.088;3.096;2023-04-24T03:39:52;2.63;;;2.25;;
66163;SDS011;52962;51.088;3.096;2023-04-24T03:42:24;2.22;;;1.92;;
66163;SDS011;52962;51.088;3.096;2023-04-24T03:44:54;4.15;;;2.22;;
66163;SDS011;52962;51.088;3.096;2023-04-24T03:47:31;4.70;;;2.28;;
66163;SDS011;52962;51.088;3.096;2023-04-24T03:50:02;2.47;;;2.28;;
66163;SDS011;52962;51.088;3.096;2023-04-24T03:52:33;2.05;;;1.48;;
66163;SDS011;52962;51.088;3.096;2023-04-24T03:55:02;2.42;;;2.22;;
66163;SDS011;52962;51.088;3.096;2023-04-24T03:57:35;2.95;;;2.42;;
66163;SDS011;52962;51.088;3.096;2023-04-24T04:00:12;2.63;;;1.92;;
66163;SDS011;52962;51.088;3.096;2023-04-24T04:02:46;2.95;;;2.70;;
66163;SDS011;52962;51.088;3.096;2023-04-24T04:05:14;2.67;;;2.20;;
66163;SDS011;52962;51.088;3.096;2023-04-24T04:07:44;1.48;;;1.42;;
66163;SDS011;52962;51.088;3.096;2023-04-24T04:10:12;2.90;;;2.38;;
66163;SDS011;52962;51.088;3.096;2023-04-24T04:12:40;2.95;;;2.33;;
66163;SDS011;52962;51.088;3.096;2023-04-24T04:15:09;4.45;;;2.70;;
66163;SDS011;52962;51.088;3.096;2023-04-24T04:17:37;3.53;;;2.42;;
66163;SDS011;52962;51.088;3.096;2023-04-24T04:20:07;3.83;;;3.33;;
66163;SDS011;52962;51.088;3.096;2023-04-24T04:22:37;4.55;;;2.58;;
66163;SDS011;52962;51.088;3.096;2023-04-24T04:25:11;6.25;;;3.08;;
66163;SDS011;52962;51.088;3.096;2023-04-24T04:27:40;3.00;;;2.28;;
66163;SDS011;52962;51.088;3.096;2023-04-24T04:30:11;6.30;;;3.47;;
66163;SDS011;52962;51.088;3.096;2023-04-24T04:32:58;4.40;;;3.13;;
66163;SDS011;52962;51.088;3.096;2023-04-24T04:35:26;6.30;;;3.40;;
66163;SDS011;52962;51.088;3.096;2023-04-24T04:37:54;6.47;;;3.28;;
66163;SDS011;52962;51.088;3.096;2023-04-24T04:40:39;3.38;;;3.05;;
66163;SDS011;52962;51.088;3.096;2023-04-24T04:43:07;2.88;;;2.60;;
66163;SDS011;52962;51.088;3.096;2023-04-24T04:45:43;3.97;;;3.42;;
66163;SDS011;52962;51.088;3.096;2023-04-24T04:48:29;5.78;;;3.92;;
66163;SDS011;52962;51.088;3.096;2023-04-24T04:51:00;8.95;;;4.75;;
66163;SDS011;52962;51.088;3.096;2023-04-24T04:53:28;5.32;;;3.58;;
66163;SDS011;52962;51.088;3.096;2023-04-24T04:55:58;9.18;;;4.82;;
66163;SDS011;52962;51.088;3.096;2023-04-24T04:58:34;5.38;;;3.03;;
66163;SDS011;52962;51.088;3.096;2023-04-24T05:01:04;6.00;;;3.42;;
66163;SDS011;52962;51.088;3.096;2023-04-24T05:03:38;4.10;;;3.65;;
66163;SDS011;52962;51.088;3.096;2023-04-24T05:06:10;3.53;;;2.75;;
66163;SDS011;52962;51.088;3.096;2023-04-24T05:08:39;8.77;;;4.30;;
66163;SDS011;52962;51.088;3.096;2023-04-24T05:11:22;4.13;;;1.75;;
66163;SDS011;52962;51.088;3.096;2023-04-24T05:13:51;7.07;;;3.05;;
66163;SDS011;52962;51.088;3.096;2023-04-24T05:16:27;5.28;;;3.22;;
66163;SDS011;52962;51.088;3.096;2023-04-24T05:18:55;4.50;;;3.88;;
66163;SDS011;52962;51.088;3.096;2023-04-24T05:21:29;5.32;;;3.40;;
66163;SDS011;52962;51.088;3.096;2023-04-24T05:23:58;6.32;;;3.97;;
66163;SDS011;52962;51.088;3.096;2023-04-24T05:27:00;8.40;;;3.38;;
66163;SDS011;52962;51.088;3.096;2023-04-24T05:29:34;6.70;;;1.27;;
66163;SDS011;52962;51.088;3.096;2023-04-24T05:32:04;4.50;;;3.88;;
66163;SDS011;52962;51.088;3.096;2023-04-24T05:34:32;7.53;;;2.90;;
66163;SDS011;52962;51.088;3.096;2023-04-24T05:37:00;5.88;;;2.92;;
66163;SDS011;52962;51.088;3.096;2023-04-24T05:39:28;3.67;;;3.05;;
66163;SDS011;52962;51.088;3.096;2023-04-24T05:41:59;9.05;;;3.13;;
66163;SDS011;52962;51.088;3.096;2023-04-24T05:44:28;5.93;;;3.83;;
66163;SDS011;52962;51.088;3.096;2023-04-24T05:46:56;5.85;;;3.58;;
66163;SDS011;52962;51.088;3.096;2023-04-24T05:49:25;2.92;;;2.35;;
66163;SDS011;52962;51.088;3.096;2023-04-24T05:51:54;5.25;;;3.80;;
66163;SDS011;52962;51.088;3.096;2023-04-24T05:54:23;4.93;;;3.03;;
66163;SDS011;52962;51.088;3.096;2023-04-24T05:56:51;10.02;;;3.22;;
66163;SDS011;52962;51.088;3.096;2023-04-24T05:59:32;3.47;;;1.73;;
66163;SDS011;52962;51.088;3.096;2023-04-24T06:02:01;2.72;;;1.83;;
66163;SDS011;52962;51.088;3.096;2023-04-24T06:04:29;4.28;;;2.85;;
66163;SDS011;52962;51.088;3.096;2023-04-24T06:06:58;6.88;;;2.90;;
66163;SDS011;52962;51.088;3.096;2023-04-24T06:09:27;3.55;;;2.88;;
66163;SDS011;52962;51.088;3.096;2023-04-24T06:11:56;2.80;;;1.60;;
66163;SDS011;52962;51.088;3.096;2023-04-24T06:14:33;2.88;;;2.45;;
66163;SDS011;52962;51.088;3.096;2023-04-24T06:17:16;3.15;;;2.17;;
66163;SDS011;52962;51.088;3.096;2023-04-24T06:19:45;6.45;;;2.97;;
66163;SDS011;52962;51.088;3.096;2023-04-24T06:24:41;4.50;;;2.42;;
66163;SDS011;52962;51.088;3.096;2023-04-24T06:27:09;1.75;;;1.65;;
66163;SDS011;52962;51.088;3.096;2023-04-24T06:29:41;6.38;;;2.50;;
66163;SDS011;52962;51.088;3.096;2023-04-24T06:32:10;1.20;;;1.10;;
66163;SDS011;52962;51.088;3.096;2023-04-24T06:34:38;7.30;;;2.60;;
66163;SDS011;52962;51.088;3.096;2023-04-24T06:37:06;3.15;;;1.77;;
66163;SDS011;52962;51.088;3.096;2023-04-24T06:39:34;5.38;;;1.80;;
66163;SDS011;52962;51.088;3.096;2023-04-24T06:42:02;3.47;;;2.03;;
66163;SDS011;52962;51.088;3.096;2023-04-24T06:44:33;3.95;;;2.08;;
66163;SDS011;52962;51.088;3.096;2023-04-24T06:47:09;3.15;;;2.53;;
66163;SDS011;52962;51.088;3.096;2023-04-24T06:49:40;2.30;;;1.65;;
66163;SDS011;52962;51.088;3.096;2023-04-24T06:52:08;2.20;;;1.98;;
66163;SDS011;52962;51.088;3.096;2023-04-24T06:54:36;4.07;;;2.03;;
66163;SDS011;52962;51.088;3.096;2023-04-24T06:57:05;3.03;;;1.55;;
66163;SDS011;52962;51.088;3.096;2023-04-24T06:59:33;5.53;;;2.25;;
66163;SDS011;52962;51.088;3.096;2023-04-24T07:02:01;6.78;;;2.28;;
66163;SDS011;52962;51.088;3.096;2023-04-24T07:06:59;5.22;;;1.85;;
66163;SDS011;52962;51.088;3.096;2023-04-24T07:09:27;1.33;;;1.13;;
66163;SDS011;52962;51.088;3.096;2023-04-24T07:11:55;5.00;;;2.25;;
66163;SDS011;52962;51.088;3.096;2023-04-24T07:14:24;3.65;;;1.67;;
66163;SDS011;52962;51.088;3.096;2023-04-24T07:16:51;7.70;;;2.10;;
66163;SDS011;52962;51.088;3.096;2023-04-24T07:19:20;1.77;;;1.00;;
66163;SDS011;52962;51.088;3.096;2023-04-24T07:21:49;1.90;;;1.65;;
66163;SDS011;52962;51.088;3.096;2023-04-24T07:24:17;7.78;;;1.45;;
66163;SDS011;52962;51.088;3.096;2023-04-24T07:26:48;2.67;;;1.50;;
66163;SDS011;52962;51.088;3.096;2023-04-24T07:29:16;3.40;;;2.40;;
66163;SDS011;52962;51.088;3.096;2023-04-24T07:34:12;3.05;;;1.75;;
66163;SDS011;52962;51.088;3.096;2023-04-24T07:36:41;0.98;;;0.95;;
66163;SDS011;52962;51.088;3.096;2023-04-24T07:41:38;1.05;;;0.95;;
66163;SDS011;52962;51.088;3.096;2023-04-24T07:44:07;1.83;;;1.27;;
66163;SDS011;52962;51.088;3.096;2023-04-24T07:46:35;2.13;;;1.42;;
66163;SDS011;52962;51.088;3.096;2023-04-24T07:49:04;1.90;;;1.25;;
66163;SDS011;52962;51.088;3.096;2023-04-24T07:51:39;3.20;;;0.98;;
66163;SDS011;52962;51.088;3.096;2023-04-24T07:54:08;4.53;;;1.70;;
66163;SDS011;52962;51.088;3.096;2023-04-24T07:59:06;2.28;;;1.80;;
66163;SDS011;52962;51.088;3.096;2023-04-24T08:01:34;1.98;;;1.27;;
66163;SDS011;52962;51.088;3.096;2023-04-24T08:04:02;3.05;;;2.15;;
66163;SDS011;52962;51.088;3.096;2023-04-24T08:06:30;3.63;;;2.10;;
66163;SDS011;52962;51.088;3.096;2023-04-24T08:08:59;3.08;;;2.20;;
66163;SDS011;52962;51.088;3.096;2023-04-24T08:11:27;0.93;;;0.75;;
66163;SDS011;52962;51.088;3.096;2023-04-24T08:13:57;3.08;;;2.22;;
66163;SDS011;52962;51.088;3.096;2023-04-24T08:16:25;4.15;;;2.55;;
66163;SDS011;52962;51.088;3.096;2023-04-24T08:18:53;5.70;;;2.67;;
66163;SDS011;52962;51.088;3.096;2023-04-24T08:21:21;5.13;;;3.03;;
66163;SDS011;52962;51.088;3.096;2023-04-24T08:23:49;5.45;;;2.78;;
66163;SDS011;52962;51.088;3.096;2023-04-24T08:26:17;1.77;;;1.67;;
66163;SDS011;52962;51.088;3.096;2023-04-24T08:28:45;6.60;;;2.47;;
66163;SDS011;52962;51.088;3.096;2023-04-24T08:31:15;14.10;;;5.13;;
66163;SDS011;52962;51.088;3.096;2023-04-24T08:33:43;2.92;;;2.63;;
66163;SDS011;52962;51.088;3.096;2023-04-24T08:36:12;2.70;;;2.42;;
66163;SDS011;52962;51.088;3.096;2023-04-24T08:38:40;2.47;;;1.50;;
66163;SDS011;52962;51.088;3.096;2023-04-24T08:41:09;7.38;;;2.78;;
66163;SDS011;52962;51.088;3.096;2023-04-24T08:43:38;4.20;;;2.78;;
66163;SDS011;52962;51.088;3.096;2023-04-24T08:46:07;4.18;;;2.40;;
66163;SDS011;52962;51.088;3.096;2023-04-24T08:48:39;2.35;;;1.83;;
66163;SDS011;52962;51.088;3.096;2023-04-24T08:51:07;4.38;;;1.85;;
66163;SDS011;52962;51.088;3.096;2023-04-24T08:53:37;2.63;;;2.05;;
66163;SDS011;52962;51.088;3.096;2023-04-24T08:56:06;6.60;;;2.05;;
66163;SDS011;52962;51.088;3.096;2023-04-24T08:58:34;2.70;;;2.13;;
66163;SDS011;52962;51.088;3.096;2023-04-24T09:01:03;2.00;;;1.55;;
66163;SDS011;52962;51.088;3.096;2023-04-24T09:03:32;2.15;;;1.95;;
66163;SDS011;52962;51.088;3.096;2023-04-24T09:06:03;4.75;;;1.52;;
66163;SDS011;52962;51.088;3.096;2023-04-24T09:08:35;2.40;;;2.20;;
66163;SDS011;52962;51.088;3.096;2023-04-24T09:11:04;2.20;;;1.42;;
66163;SDS011;52962;51.088;3.096;2023-04-24T09:13:32;4.75;;;1.63;;
66163;SDS011;52962;51.088;3.096;2023-04-24T09:16:00;1.25;;;1.13;;
66163;SDS011;52962;51.088;3.096;2023-04-24T09:20:57;3.78;;;1.83;;
66163;SDS011;52962;51.088;3.096;2023-04-24T09:23:28;5.10;;;2.60;;
66163;SDS011;52962;51.088;3.096;2023-04-24T09:25:58;2.30;;;1.50;;
66163;SDS011;52962;51.088;3.096;2023-04-24T09:28:29;3.63;;;2.00;;
66163;SDS011;52962;51.088;3.096;2023-04-24T09:31:05;6.70;;;3.38;;
66163;SDS011;52962;51.088;3.096;2023-04-24T09:33:35;2.33;;;2.08;;
66163;SDS011;52962;51.088;3.096;2023-04-24T09:36:03;8.90;;;3.88;;
66163;SDS011;52962;51.088;3.096;2023-04-24T09:38:34;1.90;;;1.75;;
66163;SDS011;52962;51.088;3.096;2023-04-24T09:41:04;5.63;;;1.38;;
66163;SDS011;52962;51.088;3.096;2023-04-24T09:43:34;2.42;;;2.22;;
66163;SDS011;52962;51.088;3.096;2023-04-24T09:46:04;4.32;;;2.40;;
66163;SDS011;52962;51.088;3.096;2023-04-24T09:48:34;2.08;;;1.58;;
66163;SDS011;52962;51.088;3.096;2023-04-24T09:51:04;2.42;;;1.65;;
66163;SDS011;52962;51.088;3.096;2023-04-24T09:53:38;2.15;;;1.23;;
66163;SDS011;52962;51.088;3.096;2023-04-24T09:56:11;1.02;;;0.93;;
66163;SDS011;52962;51.088;3.096;2023-04-24T09:58:39;2.58;;;1.85;;
66163;SDS011;52962;51.088;3.096;2023-04-24T10:03:36;1.92;;;1.65;;
66163;SDS011;52962;51.088;3.096;2023-04-24T10:06:04;2.88;;;1.83;;
66163;SDS011;52962;51.088;3.096;2023-04-24T10:08:36;1.95;;;1.77;;
66163;SDS011;52962;51.088;3.096;2023-04-24T10:11:06;3.60;;;2.10;;
66163;SDS011;52962;51.088;3.096;2023-04-24T10:13:35;3.00;;;2.08;;
66163;SDS011;52962;51.088;3.096;2023-04-24T10:16:04;3.80;;;1.65;;
66163;SDS011;52962;51.088;3.096;2023-04-24T10:18:32;3.78;;;2.13;;
66163;SDS011;52962;51.088;3.096;2023-04-24T10:21:02;2.33;;;1.58;;
66163;SDS011;52962;51.088;3.096;2023-04-24T10:23:30;0.60;;;0.52;;
66163;SDS011;52962;51.088;3.096;2023-04-24T10:25:59;2.38;;;1.33;;
66163;SDS011;52962;51.088;3.096;2023-04-24T10:28:29;2.08;;;1.42;;
66163;SDS011;52962;51.088;3.096;2023-04-24T10:30:59;1.27;;;0.80;;
66163;SDS011;52962;51.088;3.096;2023-04-24T10:33:28;1.63;;;0.95;;
66163;SDS011;52962;51.088;3.096;2023-04-24T10:35:58;3.67;;;1.38;;
66163;SDS011;52962;51.088;3.096;2023-04-24T10:38:27;2.13;;;1.42;;
66163;SDS011;52962;51.088;3.096;2023-04-24T10:41:06;4.65;;;1.38;;
66163;SDS011;52962;51.088;3.096;2023-04-24T10:43:37;5.18;;;1.45;;
66163;SDS011;52962;51.088;3.096;2023-04-24T10:46:08;7.70;;;1.42;;
66163;SDS011;52962;51.088;3.096;2023-04-24T10:48:41;2.72;;;1.00;;
66163;SDS011;52962;51.088;3.096;2023-04-24T10:51:11;1.80;;;1.23;;
66163;SDS011;52962;51.088;3.096;2023-04-24T10:53:40;1.13;;;0.73;;
66163;SDS011;52962;51.088;3.096;2023-04-24T10:58:39;1.92;;;1.33;;
66163;SDS011;52962;51.088;3.096;2023-04-24T11:01:23;1.05;;;0.82;;
66163;SDS011;52962;51.088;3.096;2023-04-24T11:03:54;3.55;;;1.00;;
66163;SDS011;52962;51.088;3.096;2023-04-24T11:06:28;2.53;;;1.30;;
66163;SDS011;52962;51.088;3.096;2023-04-24T11:09:01;2.00;;;0.77;;
66163;SDS011;52962;51.088;3.096;2023-04-24T11:11:31;1.23;;;0.90;;
66163;SDS011;52962;51.088;3.096;2023-04-24T11:16:34;1.50;;;1.10;;
66163;SDS011;52962;51.088;3.096;2023-04-24T11:19:23;0.95;;;0.77;;
66163;SDS011;52962;51.088;3.096;2023-04-24T11:21:56;1.10;;;0.88;;
66163;SDS011;52962;51.088;3.096;2023-04-24T11:24:28;1.17;;;0.73;;
66163;SDS011;52962;51.088;3.096;2023-04-24T11:26:59;1.63;;;0.82;;
66163;SDS011;52962;51.088;3.096;2023-04-24T11:29:40;2.60;;;1.00;;
66163;SDS011;52962;51.088;3.096;2023-04-24T11:32:17;2.00;;;0.90;;
66163;SDS011;52962;51.088;3.096;2023-04-24T11:34:53;1.15;;;0.93;;
66163;SDS011;52962;51.088;3.096;2023-04-24T11:37:23;1.33;;;0.95;;
66163;SDS011;52962;51.088;3.096;2023-04-24T11:39:52;1.17;;;1.02;;
66163;SDS011;52962;51.088;3.096;2023-04-24T11:42:21;4.97;;;1.33;;
66163;SDS011;52962;51.088;3.096;2023-04-24T11:44:53;2.28;;;1.02;;
66163;SDS011;52962;51.088;3.096;2023-04-24T11:47:29;1.55;;;1.13;;
66163;SDS011;52962;51.088;3.096;2023-04-24T11:50:00;1.40;;;0.90;;
66163;SDS011;52962;51.088;3.096;2023-04-24T11:52:29;2.28;;;0.90;;
66163;SDS011;52962;51.088;3.096;2023-04-24T11:54:59;0.40;;;0.40;;
66163;SDS011;52962;51.088;3.096;2023-04-24T11:57:28;1.60;;;0.80;;
66163;SDS011;52962;51.088;3.096;2023-04-24T12:00:02;3.03;;;1.15;;
66163;SDS011;52962;51.088;3.096;2023-04-24T12:02:37;2.38;;;0.50;;
66163;SDS011;52962;51.088;3.096;2023-04-24T12:05:06;2.95;;;0.73;;
66163;SDS011;52962;51.088;3.096;2023-04-24T12:07:40;0.43;;;0.43;;
66163;SDS011;52962;51.088;3.096;2023-04-24T12:10:09;0.85;;;0.77;;
66163;SDS011;52962;51.088;3.096;2023-04-24T12:12:38;0.70;;;0.70;;
66163;SDS011;52962;51.088;3.096;2023-04-24T12:15:08;1.20;;;0.60;;
66163;SDS011;52962;51.088;3.096;2023-04-24T12:17:40;0.22;;;0.22;;
66163;SDS011;52962;51.088;3.096;2023-04-24T12:20:10;0.47;;;0.40;;
66163;SDS011;52962;51.088;3.096;2023-04-24T12:22:43;0.85;;;0.80;;
66163;SDS011;52962;51.088;3.096;2023-04-24T12:25:13;0.75;;;0.60;;
66163;SDS011;52962;51.088;3.096;2023-04-24T12:27:42;2.60;;;0.85;;
66163;SDS011;52962;51.088;3.096;2023-04-24T12:30:13;1.55;;;0.52;;
66163;SDS011;52962;51.088;3.096;2023-04-24T12:32:43;1.52;;;0.50;;
66163;SDS011;52962;51.088;3.096;2023-04-24T12:35:13;0.50;;;0.50;;
66163;SDS011;52962;51.088;3.096;2023-04-24T12:37:42;0.20;;;0.17;;
66163;SDS011;52962;51.088;3.096;2023-04-24T12:40:13;0.70;;;0.50;;
66163;SDS011;52962;51.088;3.096;2023-04-24T12:42:42;0.40;;;0.40;;
66163;SDS011;52962;51.088;3.096;2023-04-24T12:45:13;0.30;;;0.30;;
66163;SDS011;52962;51.088;3.096;2023-04-24T12:47:42;0.57;;;0.50;;
66163;SDS011;52962;51.088;3.096;2023-04-24T12:50:12;1.15;;;0.52;;
66163;SDS011;52962;51.088;3.096;2023-04-24T12:52:41;0.40;;;0.40;;
66163;SDS011;52962;51.088;3.096;2023-04-24T12:55:10;0.88;;;0.65;;
66163;SDS011;52962;51.088;3.096;2023-04-24T12:57:40;1.02;;;0.85;;
66163;SDS011;52962;51.088;3.096;2023-04-24T13:00:08;0.63;;;0.55;;
66163;SDS011;52962;51.088;3.096;2023-04-24T13:02:38;0.45;;;0.45;;
66163;SDS011;52962;51.088;3.096;2023-04-24T13:05:07;0.75;;;0.30;;
66163;SDS011;52962;51.088;3.096;2023-04-24T13:07:38;1.35;;;0.32;;
66163;SDS011;52962;51.088;3.096;2023-04-24T13:10:06;1.80;;;0.57;;
66163;SDS011;52962;51.088;3.096;2023-04-24T13:12:35;0.98;;;0.52;;
66163;SDS011;52962;51.088;3.096;2023-04-24T13:15:04;0.40;;;0.40;;
66163;SDS011;52962;51.088;3.096;2023-04-24T13:17:33;0.47;;;0.40;;
66163;SDS011;52962;51.088;3.096;2023-04-24T13:20:03;0.55;;;0.45;;
66163;SDS011;52962;51.088;3.096;2023-04-24T13:22:32;0.57;;;0.52;;
66163;SDS011;52962;51.088;3.096;2023-04-24T13:25:00;0.80;;;0.50;;
66163;SDS011;52962;51.088;3.096;2023-04-24T13:27:28;0.45;;;0.45;;
66163;SDS011;52962;51.088;3.096;2023-04-24T13:32:24;0.73;;;0.60;;
66163;SDS011;52962;51.088;3.096;2023-04-24T13:34:53;1.73;;;0.70;;
66163;SDS011;52962;51.088;3.096;2023-04-24T13:37:22;1.02;;;0.77;;
66163;SDS011;52962;51.088;3.096;2023-04-24T13:39:50;3.30;;;0.70;;
66163;SDS011;52962;51.088;3.096;2023-04-24T13:42:18;1.95;;;0.82;;
66163;SDS011;52962;51.088;3.096;2023-04-24T13:44:47;1.48;;;0.90;;
66163;SDS011;52962;51.088;3.096;2023-04-24T13:47:15;1.02;;;0.60;;
66163;SDS011;52962;51.088;3.096;2023-04-24T13:49:43;2.25;;;0.82;;
66163;SDS011;52962;51.088;3.096;2023-04-24T13:54:41;0.73;;;0.73;;
66163;SDS011;52962;51.088;3.096;2023-04-24T13:57:09;1.95;;;0.88;;
66163;SDS011;52962;51.088;3.096;2023-04-24T13:59:38;1.85;;;0.77;;
66163;SDS011;52962;51.088;3.096;2023-04-24T14:02:06;4.35;;;0.68;;
66163;SDS011;52962;51.088;3.096;2023-04-24T14:04:34;1.10;;;0.63;;
66163;SDS011;52962;51.088;3.096;2023-04-24T14:07:03;1.42;;;0.73;;
66163;SDS011;52962;51.088;3.096;2023-04-24T14:09:31;0.47;;;0.47;;
66163;SDS011;52962;51.088;3.096;2023-04-24T14:12:00;1.00;;;0.55;;
66163;SDS011;52962;51.088;3.096;2023-04-24T14:14:30;1.02;;;0.70;;
66163;SDS011;52962;51.088;3.096;2023-04-24T14:16:58;1.00;;;0.80;;
66163;SDS011;52962;51.088;3.096;2023-04-24T14:19:26;0.60;;;0.60;;
66163;SDS011;52962;51.088;3.096;2023-04-24T14:21:54;0.80;;;0.70;;
66163;SDS011;52962;51.088;3.096;2023-04-24T14:24:24;0.75;;;0.73;;
66163;SDS011;52962;51.088;3.096;2023-04-24T14:29:22;0.70;;;0.43;;
66163;SDS011;52962;51.088;3.096;2023-04-24T14:31:52;0.70;;;0.70;;
66163;SDS011;52962;51.088;3.096;2023-04-24T14:34:20;0.70;;;0.60;;
66163;SDS011;52962;51.088;3.096;2023-04-24T14:39:16;0.60;;;0.60;;
66163;SDS011;52962;51.088;3.096;2023-04-24T14:41:44;0.75;;;0.73;;
66163;SDS011;52962;51.088;3.096;2023-04-24T14:46:41;0.35;;;0.35;;
66163;SDS011;52962;51.088;3.096;2023-04-24T14:49:09;1.13;;;0.60;;
66163;SDS011;52962;51.088;3.096;2023-04-24T14:51:38;1.67;;;0.95;;
66163;SDS011;52962;51.088;3.096;2023-04-24T14:56:34;0.85;;;0.82;;
66163;SDS011;52962;51.088;3.096;2023-04-24T14:59:03;2.15;;;0.93;;
66163;SDS011;52962;51.088;3.096;2023-04-24T15:01:31;0.47;;;0.47;;
66163;SDS011;52962;51.088;3.096;2023-04-24T15:06:29;2.13;;;0.88;;
66163;SDS011;52962;51.088;3.096;2023-04-24T15:08:58;1.73;;;0.82;;
66163;SDS011;52962;51.088;3.096;2023-04-24T15:11:26;1.00;;;0.93;;
66163;SDS011;52962;51.088;3.096;2023-04-24T15:13:55;3.30;;;0.88;;
66163;SDS011;52962;51.088;3.096;2023-04-24T15:16:23;4.55;;;1.00;;
66163;SDS011;52962;51.088;3.096;2023-04-24T15:18:51;0.85;;;0.73;;
66163;SDS011;52962;51.088;3.096;2023-04-24T15:23:48;0.63;;;0.63;;
66163;SDS011;52962;51.088;3.096;2023-04-24T15:26:17;0.95;;;0.73;;
66163;SDS011;52962;51.088;3.096;2023-04-24T15:28:45;1.67;;;0.85;;
66163;SDS011;52962;51.088;3.096;2023-04-24T15:31:13;0.50;;;0.50;;
66163;SDS011;52962;51.088;3.096;2023-04-24T15:33:41;3.75;;;2.67;;
66163;SDS011;52962;51.088;3.096;2023-04-24T15:36:10;10.57;;;6.60;;
66163;SDS011;52962;51.088;3.096;2023-04-24T15:41:07;2.03;;;1.10;;
66163;SDS011;52962;51.088;3.096;2023-04-24T15:43:35;3.97;;;1.20;;
66163;SDS011;52962;51.088;3.096;2023-04-24T15:46:05;1.58;;;1.00;;
66163;SDS011;52962;51.088;3.096;2023-04-24T15:51:01;2.47;;;1.25;;
66163;SDS011;52962;51.088;3.096;2023-04-24T15:53:29;0.88;;;0.82;;
66163;SDS011;52962;51.088;3.096;2023-04-24T15:55:58;1.08;;;0.90;;
66163;SDS011;52962;51.088;3.096;2023-04-24T15:58:27;1.70;;;0.77;;
66163;SDS011;52962;51.088;3.096;2023-04-24T16:00:55;1.40;;;1.05;;